sensor_id;sensor_type;location;lat;lon;timestamp;pressure;altitude;pressure_sealevel;temperature;humidity
28167;BME280;15455;53.376;-6.262;2022-09-21T00:00:41;102213.25;;;11.00;100.00
28167;BME280;15455;53.376;-6.262;2022-09-21T00:03:27;102210.78;;;11.06;100.00
28167;BME280;15455;53.376;-6.262;2022-09-21T00:06:15;102203.97;;;11.16;100.00
28167;BME280;15455;53.376;-6.262;2022-09-21T00:09:01;102207.66;;;11.26;100.00
28167;BME280;15455;53.376;-6.262;2022-09-21T00:11:49;102207.72;;;11.29;100.00
28167;BME280;15455;53.376;-6.262;2022-09-21T00:14:41;102207.81;;;11.35;100.00
28167;BME280;15455;53.376;-6.262;2022-09-21T00:17:27;102205.16;;;11.34;100.00
28167;BME280;15455;53.376;-6.262;2022-09-21T00:20:14;102203.47;;;11.36;100.00
28167;BME280;15455;53.376;-6.262;2022-09-21T00:23:00;102208.72;;;11.36;100.00
28167;BME280;15455;53.376;-6.262;2022-09-21T00:25:46;102202.56;;;11.35;100.00
28167;BME280;15455;53.376;-6.262;2022-09-21T00:28:31;102200.88;;;11.36;100.00
28167;BME280;15455;53.376;-6.262;2022-09-21T00:31:17;102207.88;;;11.38;100.00
28167;BME280;15455;53.376;-6.262;2022-09-21T00:34:03;102201.78;;;11.39;100.00
28167;BME280;15455;53.376;-6.262;2022-09-21T00:36:52;102204.44;;;11.41;100.00
28167;BME280;15455;53.376;-6.262;2022-09-21T00:39:38;102204.44;;;11.41;100.00
28167;BME280;15455;53.376;-6.262;2022-09-21T00:42:30;102210.53;;;11.40;100.00
28167;BME280;15455;53.376;-6.262;2022-09-21T00:45:15;102203.56;;;11.40;100.00
28167;BME280;15455;53.376;-6.262;2022-09-21T00:48:07;102205.31;;;11.40;100.00
28167;BME280;15455;53.376;-6.262;2022-09-21T00:50:57;102204.34;;;11.36;100.00
28167;BME280;15455;53.376;-6.262;2022-09-21T00:53:46;102194.78;;;11.37;100.00
28167;BME280;15455;53.376;-6.262;2022-09-21T00:56:36;102198.28;;;11.37;100.00
28167;BME280;15455;53.376;-6.262;2022-09-21T00:59:22;102200.91;;;11.37;100.00
28167;BME280;15455;53.376;-6.262;2022-09-21T01:02:14;102189.50;;;11.35;100.00
28167;BME280;15455;53.376;-6.262;2022-09-21T01:05:02;102189.66;;;11.43;100.00
28167;BME280;15455;53.376;-6.262;2022-09-21T01:07:48;102194.16;;;11.50;100.00
28167;BME280;15455;53.376;-6.262;2022-09-21T01:17:10;102194.31;;;11.61;100.00
28167;BME280;15455;53.376;-6.262;2022-09-21T01:35:15;102178.75;;;11.67;100.00
28167;BME280;15455;53.376;-6.262;2022-09-21T01:38:07;102176.94;;;11.64;100.00
28167;BME280;15455;53.376;-6.262;2022-09-21T01:40:58;102173.56;;;11.72;100.00
28167;BME280;15455;53.376;-6.262;2022-09-21T01:43:49;102174.41;;;11.71;100.00
28167;BME280;15455;53.376;-6.262;2022-09-21T01:46:37;102168.31;;;11.69;100.00
28167;BME280;15455;53.376;-6.262;2022-09-21T01:49:28;102164.81;;;11.70;100.00
28167;BME280;15455;53.376;-6.262;2022-09-21T01:52:30;102169.13;;;11.66;100.00
28167;BME280;15455;53.376;-6.262;2022-09-21T01:55:31;102170.91;;;11.67;100.00
28167;BME280;15455;53.376;-6.262;2022-09-21T02:01:17;102168.31;;;11.69;100.00
28167;BME280;15455;53.376;-6.262;2022-09-21T02:04:09;102156.09;;;11.69;100.00
28167;BME280;15455;53.376;-6.262;2022-09-21T02:06:55;102151.72;;;11.68;100.00
28167;BME280;15455;53.376;-6.262;2022-09-21T02:09:41;102150.00;;;11.69;100.00
28167;BME280;15455;53.376;-6.262;2022-09-21T02:12:27;102144.75;;;11.67;100.00
28167;BME280;15455;53.376;-6.262;2022-09-21T02:15:12;102146.44;;;11.65;100.00
28167;BME280;15455;53.376;-6.262;2022-09-21T02:18:19;102143.81;;;11.63;100.00
28167;BME280;15455;53.376;-6.262;2022-09-21T02:21:55;102146.41;;;11.63;100.00
28167;BME280;15455;53.376;-6.262;2022-09-21T02:24:43;102143.75;;;11.60;100.00
28167;BME280;15455;53.376;-6.262;2022-09-21T02:27:49;102129.81;;;11.60;100.00
28167;BME280;15455;53.376;-6.262;2022-09-21T02:30:40;102136.75;;;11.58;100.00
28167;BME280;15455;53.376;-6.262;2022-09-21T02:33:38;102137.53;;;11.54;100.00
28167;BME280;15455;53.376;-6.262;2022-09-21T02:36:38;102134.00;;;11.50;100.00
28167;BME280;15455;53.376;-6.262;2022-09-21T02:39:41;102127.81;;;11.45;100.00
28167;BME280;15455;53.376;-6.262;2022-09-21T02:42:32;102126.91;;;11.41;100.00
28167;BME280;15455;53.376;-6.262;2022-09-21T02:45:26;102121.59;;;11.37;100.00
28167;BME280;15455;53.376;-6.262;2022-09-21T02:48:16;102119.81;;;11.34;100.00
28167;BME280;15455;53.376;-6.262;2022-09-21T02:51:08;102123.22;;;11.30;100.00
28167;BME280;15455;53.376;-6.262;2022-09-21T02:53:54;102122.25;;;11.25;100.00
28167;BME280;15455;53.376;-6.262;2022-09-21T02:56:42;102115.19;;;11.19;100.00
28167;BME280;15455;53.376;-6.262;2022-09-21T02:59:31;102116.94;;;11.19;100.00
28167;BME280;15455;53.376;-6.262;2022-09-21T03:02:17;102112.47;;;11.11;100.00
28167;BME280;15455;53.376;-6.262;2022-09-21T03:05:02;102106.38;;;11.12;100.00
28167;BME280;15455;53.376;-6.262;2022-09-21T03:07:48;102096.69;;;11.05;100.00
28167;BME280;15455;53.376;-6.262;2022-09-21T03:10:33;102096.41;;;10.90;100.00
28167;BME280;15455;53.376;-6.262;2022-09-21T03:13:24;102100.72;;;10.86;100.00
28167;BME280;15455;53.376;-6.262;2022-09-21T03:16:11;102100.56;;;10.80;100.00
28167;BME280;15455;53.376;-6.262;2022-09-21T03:18:56;102106.44;;;10.68;100.00
28167;BME280;15455;53.376;-6.262;2022-09-21T03:21:42;102105.41;;;10.60;100.00
28167;BME280;15455;53.376;-6.262;2022-09-21T03:24:29;102113.19;;;10.57;100.00
28167;BME280;15455;53.376;-6.262;2022-09-21T03:27:30;102103.41;;;10.47;100.00
28167;BME280;15455;53.376;-6.262;2022-09-21T03:30:15;102103.31;;;10.40;100.00
28167;BME280;15455;53.376;-6.262;2022-09-21T03:33:01;102101.38;;;10.33;100.00
28167;BME280;15455;53.376;-6.262;2022-09-21T03:35:47;102104.63;;;10.21;100.00
28167;BME280;15455;53.376;-6.262;2022-09-21T03:38:33;102107.84;;;10.09;100.00
28167;BME280;15455;53.376;-6.262;2022-09-21T03:41:19;102099.91;;;10.05;100.00
28167;BME280;15455;53.376;-6.262;2022-09-21T03:44:05;102106.81;;;10.01;100.00
28167;BME280;15455;53.376;-6.262;2022-09-21T03:46:50;102098.56;;;9.83;100.00
28167;BME280;15455;53.376;-6.262;2022-09-21T03:49:36;102093.50;;;9.89;100.00
28167;BME280;15455;53.376;-6.262;2022-09-21T03:52:23;102097.56;;;9.78;100.00
28167;BME280;15455;53.376;-6.262;2022-09-21T03:55:08;102088.00;;;9.75;100.00
28167;BME280;15455;53.376;-6.262;2022-09-21T03:57:53;102089.03;;;9.85;100.00
28167;BME280;15455;53.376;-6.262;2022-09-21T04:00:39;102089.75;;;9.78;100.00
28167;BME280;15455;53.376;-6.262;2022-09-21T04:03:24;102080.16;;;9.75;100.00
28167;BME280;15455;53.376;-6.262;2022-09-21T04:06:11;102083.22;;;9.57;100.00
28167;BME280;15455;53.376;-6.262;2022-09-21T04:08:57;102085.78;;;9.55;100.00
28167;BME280;15455;53.376;-6.262;2022-09-21T04:11:45;102081.53;;;9.59;100.00
28167;BME280;15455;53.376;-6.262;2022-09-21T04:14:30;102085.03;;;9.60;100.00
28167;BME280;15455;53.376;-6.262;2022-09-21T04:17:16;102091.69;;;9.48;100.00
28167;BME280;15455;53.376;-6.262;2022-09-21T04:20:02;102088.91;;;9.41;100.00
28167;BME280;15455;53.376;-6.262;2022-09-21T04:22:48;102086.72;;;9.23;100.00
28167;BME280;15455;53.376;-6.262;2022-09-21T04:25:34;102084.84;;;9.17;100.00
28167;BME280;15455;53.376;-6.262;2022-09-21T04:28:20;102089.78;;;9.04;100.00
28167;BME280;15455;53.376;-6.262;2022-09-21T04:31:06;102091.41;;;9.01;100.00
28167;BME280;15455;53.376;-6.262;2022-09-21T04:33:53;102095.44;;;8.90;100.00
28167;BME280;15455;53.376;-6.262;2022-09-21T04:36:39;102113.13;;;9.01;100.00
28167;BME280;15455;53.376;-6.262;2022-09-21T04:39:25;102100.66;;;8.90;100.00
28167;BME280;15455;53.376;-6.262;2022-09-21T04:42:10;102095.59;;;8.94;100.00
28167;BME280;15455;53.376;-6.262;2022-09-21T04:44:56;102096.47;;;8.95;100.00
28167;BME280;15455;53.376;-6.262;2022-09-21T04:47:41;102094.56;;;8.89;100.00
28167;BME280;15455;53.376;-6.262;2022-09-21T04:50:27;102095.38;;;8.86;100.00
28167;BME280;15455;53.376;-6.262;2022-09-21T04:53:20;102090.88;;;8.81;100.00
28167;BME280;15455;53.376;-6.262;2022-09-21T04:56:06;102095.19;;;8.79;100.00
28167;BME280;15455;53.376;-6.262;2022-09-21T04:58:52;102093.97;;;8.66;100.00
28167;BME280;15455;53.376;-6.262;2022-09-21T05:01:38;102098.31;;;8.65;100.00
28167;BME280;15455;53.376;-6.262;2022-09-21T05:04:23;102091.16;;;8.58;100.00
28167;BME280;15455;53.376;-6.262;2022-09-21T05:07:09;102088.47;;;8.55;100.00
28167;BME280;15455;53.376;-6.262;2022-09-21T05:09:54;102095.53;;;8.61;100.00
28167;BME280;15455;53.376;-6.262;2022-09-21T05:12:48;102094.75;;;8.63;100.00
28167;BME280;15455;53.376;-6.262;2022-09-21T05:15:36;102095.75;;;8.67;100.00
28167;BME280;15455;53.376;-6.262;2022-09-21T05:18:22;102095.06;;;8.74;100.00
28167;BME280;15455;53.376;-6.262;2022-09-21T05:21:08;102089.19;;;8.81;100.00
28167;BME280;15455;53.376;-6.262;2022-09-21T05:23:55;102102.44;;;8.91;100.00
28167;BME280;15455;53.376;-6.262;2022-09-21T05:26:41;102102.84;;;9.06;100.00
28167;BME280;15455;53.376;-6.262;2022-09-21T05:29:27;102103.84;;;9.13;100.00
28167;BME280;15455;53.376;-6.262;2022-09-21T05:35:37;102105.06;;;9.27;100.00
28167;BME280;15455;53.376;-6.262;2022-09-21T05:38:27;102117.34;;;9.31;100.00
28167;BME280;15455;53.376;-6.262;2022-09-21T05:41:13;102109.81;;;9.42;100.00
28167;BME280;15455;53.376;-6.262;2022-09-21T05:43:59;102106.00;;;9.66;100.00
28167;BME280;15455;53.376;-6.262;2022-09-21T05:55:58;102107.13;;;9.77;100.00
28167;BME280;15455;53.376;-6.262;2022-09-21T05:58:55;102106.25;;;9.75;100.00
28167;BME280;15455;53.376;-6.262;2022-09-21T06:04:49;102104.13;;;9.60;100.00
28167;BME280;15455;53.376;-6.262;2022-09-21T06:07:36;102102.22;;;9.53;100.00
28167;BME280;15455;53.376;-6.262;2022-09-21T06:10:21;102096.81;;;9.44;100.00
28167;BME280;15455;53.376;-6.262;2022-09-21T06:13:09;102101.28;;;9.49;100.00
28167;BME280;15455;53.376;-6.262;2022-09-21T06:15:54;102097.09;;;9.56;100.00
28167;BME280;15455;53.376;-6.262;2022-09-21T06:18:41;102099.09;;;9.66;100.00
28167;BME280;15455;53.376;-6.262;2022-09-21T06:21:26;102106.31;;;9.78;100.00
28167;BME280;15455;53.376;-6.262;2022-09-21T06:24:11;102104.09;;;9.97;100.00
28167;BME280;15455;53.376;-6.262;2022-09-21T06:26:57;102101.75;;;10.09;100.00
28167;BME280;15455;53.376;-6.262;2022-09-21T06:29:42;102103.88;;;10.27;100.00
28167;BME280;15455;53.376;-6.262;2022-09-21T06:32:27;102106.72;;;10.38;100.00
28167;BME280;15455;53.376;-6.262;2022-09-21T06:35:13;102103.41;;;10.47;100.00
28167;BME280;15455;53.376;-6.262;2022-09-21T06:37:59;102106.22;;;10.56;100.00
28167;BME280;15455;53.376;-6.262;2022-09-21T06:40:46;102109.00;;;10.65;100.00
28167;BME280;15455;53.376;-6.262;2022-09-21T06:43:32;102109.16;;;10.74;100.00
28167;BME280;15455;53.376;-6.262;2022-09-21T06:46:17;102099.84;;;10.89;100.00
28167;BME280;15455;53.376;-6.262;2022-09-21T06:49:03;102100.84;;;10.95;100.00
28167;BME280;15455;53.376;-6.262;2022-09-21T06:51:48;102108.94;;;11.09;100.00
28167;BME280;15455;53.376;-6.262;2022-09-21T06:54:33;102099.50;;;11.19;100.00
28167;BME280;15455;53.376;-6.262;2022-09-21T06:57:19;102100.56;;;11.30;100.00
28167;BME280;15455;53.376;-6.262;2022-09-21T07:00:07;102094.59;;;11.39;100.00
28167;BME280;15455;53.376;-6.262;2022-09-21T07:02:53;102094.81;;;11.52;100.00
28167;BME280;15455;53.376;-6.262;2022-09-21T07:05:39;102093.25;;;11.63;100.00
28167;BME280;15455;53.376;-6.262;2022-09-21T07:08:25;102082.97;;;11.77;100.00
28167;BME280;15455;53.376;-6.262;2022-09-21T07:11:30;102083.25;;;11.95;100.00
28167;BME280;15455;53.376;-6.262;2022-09-21T07:14:16;102073.88;;;12.13;100.00
28167;BME280;15455;53.376;-6.262;2022-09-21T07:17:02;102068.00;;;12.29;100.00
28167;BME280;15455;53.376;-6.262;2022-09-21T07:19:47;102060.28;;;12.43;100.00
28167;BME280;15455;53.376;-6.262;2022-09-21T07:22:34;102052.59;;;12.60;100.00
28167;BME280;15455;53.376;-6.262;2022-09-21T07:25:20;102053.66;;;12.79;100.00
28167;BME280;15455;53.376;-6.262;2022-09-21T07:28:06;102042.44;;;12.93;100.00
28167;BME280;15455;53.376;-6.262;2022-09-21T07:30:52;102042.53;;;13.07;100.00
28167;BME280;15455;53.376;-6.262;2022-09-21T07:33:37;102036.53;;;13.20;100.00
28167;BME280;15455;53.376;-6.262;2022-09-21T07:36:23;102027.00;;;13.33;100.00
28167;BME280;15455;53.376;-6.262;2022-09-21T07:39:09;102033.22;;;13.44;100.00
28167;BME280;15455;53.376;-6.262;2022-09-21T07:41:55;102030.69;;;13.52;100.00
28167;BME280;15455;53.376;-6.262;2022-09-21T07:44:42;102023.72;;;13.63;100.00
28167;BME280;15455;53.376;-6.262;2022-09-21T07:47:28;102027.28;;;13.76;100.00
28167;BME280;15455;53.376;-6.262;2022-09-21T07:50:14;102026.44;;;13.86;100.00
28167;BME280;15455;53.376;-6.262;2022-09-21T07:53:00;102026.50;;;13.96;100.00
28167;BME280;15455;53.376;-6.262;2022-09-21T07:55:46;102029.16;;;14.03;100.00
28167;BME280;15455;53.376;-6.262;2022-09-21T07:58:32;102026.53;;;14.10;100.00
28167;BME280;15455;53.376;-6.262;2022-09-21T08:01:50;102023.06;;;14.12;100.00
28167;BME280;15455;53.376;-6.262;2022-09-21T08:04:36;102021.34;;;14.23;100.00
28167;BME280;15455;53.376;-6.262;2022-09-21T08:07:21;102010.84;;;14.28;100.00
28167;BME280;15455;53.376;-6.262;2022-09-21T08:10:08;102000.34;;;14.31;100.00
28167;BME280;15455;53.376;-6.262;2022-09-21T08:12:54;102006.50;;;14.33;100.00
28167;BME280;15455;53.376;-6.262;2022-09-21T08:15:40;102003.88;;;14.41;100.00
28167;BME280;15455;53.376;-6.262;2022-09-21T08:18:39;101994.22;;;14.40;100.00
28167;BME280;15455;53.376;-6.262;2022-09-21T08:21:25;101996.88;;;14.48;100.00
28167;BME280;15455;53.376;-6.262;2022-09-21T08:24:10;101991.63;;;14.49;100.00
28167;BME280;15455;53.376;-6.262;2022-09-21T08:26:56;101994.25;;;14.57;100.00
28167;BME280;15455;53.376;-6.262;2022-09-21T08:29:41;101984.69;;;14.62;100.00
28167;BME280;15455;53.376;-6.262;2022-09-21T08:32:27;101988.19;;;14.72;100.00
28167;BME280;15455;53.376;-6.262;2022-09-21T08:35:33;101989.94;;;14.82;100.00
28167;BME280;15455;53.376;-6.262;2022-09-21T08:38:20;101990.81;;;14.95;100.00
28167;BME280;15455;53.376;-6.262;2022-09-21T08:44:08;101982.00;;;15.24;100.00
28167;BME280;15455;53.376;-6.262;2022-09-21T08:49:55;101984.59;;;15.38;100.00
28167;BME280;15455;53.376;-6.262;2022-09-21T08:52:42;101990.75;;;15.41;100.00
28167;BME280;15455;53.376;-6.262;2022-09-21T08:55:31;101981.06;;;15.48;100.00
28167;BME280;15455;53.376;-6.262;2022-09-21T08:58:22;101986.31;;;15.53;100.00
28167;BME280;15455;53.376;-6.262;2022-09-21T09:11:40;101979.28;;;15.56;100.00
28167;BME280;15455;53.376;-6.262;2022-09-21T09:20:14;101986.25;;;15.67;100.00
28167;BME280;15455;53.376;-6.262;2022-09-21T09:23:10;101979.22;;;15.72;100.00
28167;BME280;15455;53.376;-6.262;2022-09-21T09:26:02;101975.72;;;15.74;100.00
28167;BME280;15455;53.376;-6.262;2022-09-21T09:29:09;101983.59;;;15.73;100.00
28167;BME280;15455;53.376;-6.262;2022-09-21T09:31:58;101969.59;;;15.82;100.00
28167;BME280;15455;53.376;-6.262;2022-09-21T09:34:52;101980.03;;;15.94;100.00
28167;BME280;15455;53.376;-6.262;2022-09-21T09:37:41;101980.84;;;16.07;100.00
28167;BME280;15455;53.376;-6.262;2022-09-21T09:46:48;101964.81;;;16.44;100.00
28167;BME280;15455;53.376;-6.262;2022-09-21T09:52:44;101962.19;;;16.41;100.00
28167;BME280;15455;53.376;-6.262;2022-09-21T09:55:37;101955.09;;;16.49;100.00
28167;BME280;15455;53.376;-6.262;2022-09-21T10:01:58;101957.47;;;16.83;100.00
28167;BME280;15455;53.376;-6.262;2022-09-21T10:04:58;101952.06;;;17.01;100.00
28167;BME280;15455;53.376;-6.262;2022-09-21T10:07:57;101950.13;;;17.19;100.00
28167;BME280;15455;53.376;-6.262;2022-09-21T10:10:43;101938.63;;;17.25;99.08
28167;BME280;15455;53.376;-6.262;2022-09-21T10:13:36;101936.81;;;17.27;99.96
28167;BME280;15455;53.376;-6.262;2022-09-21T10:16:22;101934.25;;;17.22;100.00
28167;BME280;15455;53.376;-6.262;2022-09-21T10:19:21;101936.88;;;17.24;100.00
28167;BME280;15455;53.376;-6.262;2022-09-21T10:22:15;101936.00;;;17.20;99.95
28167;BME280;15455;53.376;-6.262;2022-09-21T10:25:02;101933.38;;;17.23;100.00
28167;BME280;15455;53.376;-6.262;2022-09-21T10:27:50;101936.00;;;17.20;100.00
28167;BME280;15455;53.376;-6.262;2022-09-21T10:30:36;101941.41;;;17.09;100.00
28167;BME280;15455;53.376;-6.262;2022-09-21T10:33:22;101947.50;;;17.17;100.00
28167;BME280;15455;53.376;-6.262;2022-09-21T10:36:27;101925.59;;;17.08;100.00
28167;BME280;15455;53.376;-6.262;2022-09-21T10:39:17;101931.81;;;17.02;100.00
28167;BME280;15455;53.376;-6.262;2022-09-21T10:42:12;101927.38;;;17.06;100.00
28167;BME280;15455;53.376;-6.262;2022-09-21T10:45:22;101925.56;;;17.12;100.00
28167;BME280;15455;53.376;-6.262;2022-09-21T10:48:13;101920.25;;;17.15;100.00
28167;BME280;15455;53.376;-6.262;2022-09-21T10:51:01;101929.84;;;17.21;100.00
28167;BME280;15455;53.376;-6.262;2022-09-21T10:53:47;101923.66;;;17.25;100.00
28167;BME280;15455;53.376;-6.262;2022-09-21T10:56:49;101915.63;;;17.33;100.00
28167;BME280;15455;53.376;-6.262;2022-09-21T10:59:36;101919.97;;;17.39;100.00
28167;BME280;15455;53.376;-6.262;2022-09-21T11:02:40;101914.72;;;17.37;100.00
28167;BME280;15455;53.376;-6.262;2022-09-21T11:05:32;101922.53;;;17.46;100.00
28167;BME280;15455;53.376;-6.262;2022-09-21T11:08:23;101916.28;;;17.52;100.00
28167;BME280;15455;53.376;-6.262;2022-09-21T11:11:40;101918.00;;;17.56;100.00
28167;BME280;15455;53.376;-6.262;2022-09-21T11:17:34;101892.66;;;18.07;100.00
28167;BME280;15455;53.376;-6.262;2022-09-21T11:20:29;101899.16;;;18.43;100.00
28167;BME280;15455;53.376;-6.262;2022-09-21T11:23:40;101891.81;;;18.61;98.15
28167;BME280;15455;53.376;-6.262;2022-09-21T11:26:41;101889.78;;;18.75;98.72
28167;BME280;15455;53.376;-6.262;2022-09-21T11:38:46;101881.34;;;19.03;97.21
28167;BME280;15455;53.376;-6.262;2022-09-21T11:42:13;101867.75;;;19.21;96.42
28167;BME280;15455;53.376;-6.262;2022-09-21T12:16:45;101839.63;;;19.95;88.09
28167;BME280;15455;53.376;-6.262;2022-09-21T12:19:45;101840.94;;;19.79;88.11
28167;BME280;15455;53.376;-6.262;2022-09-21T12:22:37;101842.13;;;19.63;89.36
28167;BME280;15455;53.376;-6.262;2022-09-21T12:25:30;101834.63;;;19.42;92.34
28167;BME280;15455;53.376;-6.262;2022-09-21T12:28:41;101838.28;;;18.95;91.32
28167;BME280;15455;53.376;-6.262;2022-09-21T12:31:34;101844.25;;;18.59;93.87
28167;BME280;15455;53.376;-6.262;2022-09-21T12:34:40;101839.41;;;18.33;95.29
28167;BME280;15455;53.376;-6.262;2022-09-21T12:37:58;101837.75;;;18.27;100.00
28167;BME280;15455;53.376;-6.262;2022-09-21T12:41:02;101838.41;;;18.38;100.00
28167;BME280;15455;53.376;-6.262;2022-09-21T12:46:52;101819.66;;;18.54;99.25
28167;BME280;15455;53.376;-6.262;2022-09-21T12:49:45;101815.03;;;18.65;99.54
28167;BME280;15455;53.376;-6.262;2022-09-21T12:52:33;101814.16;;;18.63;98.10
28167;BME280;15455;53.376;-6.262;2022-09-21T13:01:46;101801.84;;;18.64;100.00
28167;BME280;15455;53.376;-6.262;2022-09-21T13:08:16;101817.00;;;18.54;100.00
28167;BME280;15455;53.376;-6.262;2022-09-21T13:11:05;101810.09;;;18.47;100.00
28167;BME280;15455;53.376;-6.262;2022-09-21T13:13:56;101810.69;;;18.61;100.00
28167;BME280;15455;53.376;-6.262;2022-09-21T13:16:43;101814.28;;;18.57;99.76
28167;BME280;15455;53.376;-6.262;2022-09-21T13:19:37;101804.59;;;18.56;99.61
28167;BME280;15455;53.376;-6.262;2022-09-21T13:22:24;101795.97;;;18.48;98.52
28167;BME280;15455;53.376;-6.262;2022-09-21T13:34:36;101785.00;;;18.69;98.87
28167;BME280;15455;53.376;-6.262;2022-09-21T13:37:26;101778.06;;;18.62;99.94
28167;BME280;15455;53.376;-6.262;2022-09-21T13:43:15;101774.59;;;18.58;100.00
28167;BME280;15455;53.376;-6.262;2022-09-21T13:46:01;101780.69;;;18.64;100.00
28167;BME280;15455;53.376;-6.262;2022-09-21T13:48:51;101770.16;;;18.62;100.00
28167;BME280;15455;53.376;-6.262;2022-09-21T13:51:58;101779.03;;;18.58;100.00
28167;BME280;15455;53.376;-6.262;2022-09-21T13:55:00;101774.09;;;18.39;100.00
28167;BME280;15455;53.376;-6.262;2022-09-21T13:57:49;101773.38;;;18.30;100.00
28167;BME280;15455;53.376;-6.262;2022-09-21T14:00:40;101770.91;;;18.20;100.00
28167;BME280;15455;53.376;-6.262;2022-09-21T14:03:39;101774.59;;;18.12;100.00
28167;BME280;15455;53.376;-6.262;2022-09-21T14:06:33;101773.03;;;18.00;100.00
28167;BME280;15455;53.376;-6.262;2022-09-21T14:09:23;101772.19;;;17.98;100.00
28167;BME280;15455;53.376;-6.262;2022-09-21T14:12:18;101764.31;;;17.95;100.00
28167;BME280;15455;53.376;-6.262;2022-09-21T14:18:36;101754.59;;;17.95;100.00
28167;BME280;15455;53.376;-6.262;2022-09-21T14:21:21;101756.47;;;17.88;100.00
28167;BME280;15455;53.376;-6.262;2022-09-21T14:24:17;101753.81;;;17.88;100.00
28167;BME280;15455;53.376;-6.262;2022-09-21T14:27:25;101759.13;;;17.90;100.00
28167;BME280;15455;53.376;-6.262;2022-09-21T14:30:23;101758.09;;;17.99;100.00
28167;BME280;15455;53.376;-6.262;2022-09-21T14:33:42;101747.38;;;18.07;100.00
28167;BME280;15455;53.376;-6.262;2022-09-21T14:36:32;101743.88;;;18.06;100.00
28167;BME280;15455;53.376;-6.262;2022-09-21T14:39:32;101740.38;;;18.05;100.00
28167;BME280;15455;53.376;-6.262;2022-09-21T14:42:22;101732.03;;;18.29;100.00
28167;BME280;15455;53.376;-6.262;2022-09-21T14:45:14;101727.94;;;18.56;100.00
28167;BME280;15455;53.376;-6.262;2022-09-21T14:48:27;101718.13;;;18.63;100.00
28167;BME280;15455;53.376;-6.262;2022-09-21T14:51:19;101710.97;;;18.68;100.00
28167;BME280;15455;53.376;-6.262;2022-09-21T15:03:45;101679.44;;;20.07;92.14
28167;BME280;15455;53.376;-6.262;2022-09-21T15:06:37;101677.75;;;20.06;88.40
28167;BME280;15455;53.376;-6.262;2022-09-21T15:10:44;101676.72;;;20.42;90.44
28167;BME280;15455;53.376;-6.262;2022-09-21T15:16:47;101678.75;;;20.32;89.40
28167;BME280;15455;53.376;-6.262;2022-09-21T15:19:35;101674.69;;;20.20;89.33
28167;BME280;15455;53.376;-6.262;2022-09-21T15:22:21;101668.34;;;19.93;89.38
28167;BME280;15455;53.376;-6.262;2022-09-21T15:25:12;101680.84;;;19.53;89.56
28167;BME280;15455;53.376;-6.262;2022-09-21T15:27:57;101676.34;;;19.19;90.38
28167;BME280;15455;53.376;-6.262;2022-09-21T15:30:44;101674.75;;;19.12;92.16
28167;BME280;15455;53.376;-6.262;2022-09-21T15:33:36;101669.59;;;19.06;90.55
28167;BME280;15455;53.376;-6.262;2022-09-21T15:36:24;101663.06;;;19.21;89.15
28167;BME280;15455;53.376;-6.262;2022-09-21T15:39:30;101666.88;;;19.47;90.14
28167;BME280;15455;53.376;-6.262;2022-09-21T15:42:19;101669.34;;;19.54;88.13
28167;BME280;15455;53.376;-6.262;2022-09-21T15:45:17;101664.66;;;19.64;88.73
28167;BME280;15455;53.376;-6.262;2022-09-21T15:48:05;101668.44;;;19.54;87.56
28167;BME280;15455;53.376;-6.262;2022-09-21T15:51:14;101673.25;;;19.38;91.75
28167;BME280;15455;53.376;-6.262;2022-09-21T15:57:36;101657.69;;;18.88;92.53
28167;BME280;15455;53.376;-6.262;2022-09-21T16:00:30;101660.53;;;18.77;92.57
28167;BME280;15455;53.376;-6.262;2022-09-21T16:03:22;101655.41;;;18.69;94.63
28167;BME280;15455;53.376;-6.262;2022-09-21T16:06:28;101634.44;;;18.60;91.67
28167;BME280;15455;53.376;-6.262;2022-09-21T16:12:40;101627.41;;;18.61;90.62
28167;BME280;15455;53.376;-6.262;2022-09-21T16:15:27;101640.38;;;18.71;90.21
28167;BME280;15455;53.376;-6.262;2022-09-21T16:18:39;101628.75;;;18.79;87.73
28167;BME280;15455;53.376;-6.262;2022-09-21T16:21:36;101625.75;;;18.96;87.37
28167;BME280;15455;53.376;-6.262;2022-09-21T16:24:22;101638.69;;;19.09;84.72
28167;BME280;15455;53.376;-6.262;2022-09-21T16:27:15;101636.03;;;19.08;87.96
28167;BME280;15455;53.376;-6.262;2022-09-21T16:30:01;101616.44;;;18.78;86.22
28167;BME280;15455;53.376;-6.262;2022-09-21T16:32:47;101621.63;;;18.82;89.52
28167;BME280;15455;53.376;-6.262;2022-09-21T16:35:37;101614.16;;;19.01;90.87
28167;BME280;15455;53.376;-6.262;2022-09-21T16:38:25;101610.22;;;19.18;86.74
28167;BME280;15455;53.376;-6.262;2022-09-21T16:41:10;101610.72;;;19.34;87.41
28167;BME280;15455;53.376;-6.262;2022-09-21T16:43:56;101603.69;;;19.33;87.69
28167;BME280;15455;53.376;-6.262;2022-09-21T16:46:43;101600.16;;;19.32;86.19
28167;BME280;15455;53.376;-6.262;2022-09-21T16:49:31;101609.69;;;19.03;88.81
28167;BME280;15455;53.376;-6.262;2022-09-21T16:52:20;101601.59;;;18.72;90.97
28167;BME280;15455;53.376;-6.262;2022-09-21T16:55:07;101597.66;;;18.51;91.52
28167;BME280;15455;53.376;-6.262;2022-09-21T16:57:53;101601.53;;;18.34;92.28
28167;BME280;15455;53.376;-6.262;2022-09-21T17:00:40;101590.38;;;18.18;93.88
28167;BME280;15455;53.376;-6.262;2022-09-21T17:03:27;101584.63;;;17.99;94.67
28167;BME280;15455;53.376;-6.262;2022-09-21T17:06:17;101591.72;;;17.97;96.89
28167;BME280;15455;53.376;-6.262;2022-09-21T17:09:20;101591.59;;;18.03;98.28
28167;BME280;15455;53.376;-6.262;2022-09-21T17:12:15;101584.44;;;18.09;98.63
28167;BME280;15455;53.376;-6.262;2022-09-21T17:15:01;101570.44;;;18.03;97.50
28167;BME280;15455;53.376;-6.262;2022-09-21T17:17:49;101566.34;;;17.87;95.01
28167;BME280;15455;53.376;-6.262;2022-09-21T17:20:35;101571.97;;;17.70;96.33